Wainfleet, United Kingdom
Current Conditions -  °F | °C
As of 7:50 AM on Tuesday 27 Jan 2015 (Local Time) from EGXC Reporting Station
Clear Clear  
Wind Chill: 33°   Ceiling: Unl
Heat Index: 39°   Visibility: 6mi
Dew Point: 36°   Wind: 9mph
Humidity: 87%   Direction: 280°W
Pressure: 30.27"   Gusts: NA
Location:  53.03°N, 0.27°E
Report Text: EGXC 270750Z 28008KT CAVOK 04/02 Q1025 BLU NOSIG
Loading
Personal Weather Stations






























Interactive Weather Map New forecast layout! Learn more

10-Day Weather Forecast

Advertisements
Track Severe Weather on mobile